sensor_id;sensor_type;location;lat;lon;timestamp;pressure;altitude;pressure_sealevel;temperature;humidity
58739;BME280;44512;53.046;18.604;2022-10-23T00:03:47;101705.16;;;14.43;79.54
58739;BME280;44512;53.046;18.604;2022-10-23T00:14:15;101710.99;;;14.40;79.17
58739;BME280;44512;53.046;18.604;2022-10-23T00:24:42;101717.70;;;14.37;78.86
58739;BME280;44512;53.046;18.604;2022-10-23T00:35:10;101710.55;;;14.36;78.57
58739;BME280;44512;53.046;18.604;2022-10-23T00:45:39;101704.71;;;14.39;78.44
58739;BME280;44512;53.046;18.604;2022-10-23T00:56:07;101708.06;;;14.41;78.27
58739;BME280;44512;53.046;18.604;2022-10-23T01:06:45;101713.51;;;14.41;78.02
58739;BME280;44512;53.046;18.604;2022-10-23T01:17:16;101725.21;;;14.35;77.83
58739;BME280;44512;53.046;18.604;2022-10-23T01:27:35;101725.18;;;14.28;77.58
58739;BME280;44512;53.046;18.604;2022-10-23T01:48:30;101688.05;;;14.21;77.79
58739;BME280;44512;53.046;18.604;2022-10-23T01:59:02;101685.53;;;14.19;77.83
58739;BME280;44512;53.046;18.604;2022-10-23T02:09:26;101672.76;;;14.20;77.97
58739;BME280;44512;53.046;18.604;2022-10-23T02:20:18;101681.98;;;14.19;78.07
58739;BME280;44512;53.046;18.604;2022-10-23T02:30:23;101696.19;;;14.14;78.25
58739;BME280;44512;53.046;18.604;2022-10-23T02:40:52;101696.79;;;14.10;78.61
58739;BME280;44512;53.046;18.604;2022-10-23T02:51:28;101701.19;;;14.11;78.82
58739;BME280;44512;53.046;18.604;2022-10-23T03:01:54;101702.89;;;14.12;78.91
58739;BME280;44512;53.046;18.604;2022-10-23T03:12:16;101714.16;;;14.08;79.10
58739;BME280;44512;53.046;18.604;2022-10-23T03:22:45;101718.32;;;14.04;79.43
58739;BME280;44512;53.046;18.604;2022-10-23T03:33:13;101714.97;;;14.02;79.72
58739;BME280;44512;53.046;18.604;2022-10-23T03:43:41;101717.03;;;14.00;79.96
58739;BME280;44512;53.046;18.604;2022-10-23T03:54:10;101729.17;;;13.98;80.15
58739;BME280;44512;53.046;18.604;2022-10-23T04:04:38;101727.29;;;13.98;80.31
58739;BME280;44512;53.046;18.604;2022-10-23T04:15:07;101721.84;;;13.98;80.38
58739;BME280;44512;53.046;18.604;2022-10-23T04:25:35;101732.53;;;14.00;80.43
58739;BME280;44512;53.046;18.604;2022-10-23T04:36:04;101740.30;;;14.03;80.46
58739;BME280;44512;53.046;18.604;2022-10-23T04:46:32;101738.03;;;14.06;80.45
58739;BME280;44512;53.046;18.604;2022-10-23T04:57:00;101739.05;;;14.05;80.38
58739;BME280;44512;53.046;18.604;2022-10-23T05:07:28;101750.74;;;13.99;80.16
58739;BME280;44512;53.046;18.604;2022-10-23T05:18:06;101749.86;;;13.92;80.20
58739;BME280;44512;53.046;18.604;2022-10-23T05:28:25;101734.13;;;13.88;80.04
58739;BME280;44512;53.046;18.604;2022-10-23T05:38:54;101739.77;;;13.86;80.09
58739;BME280;44512;53.046;18.604;2022-10-23T05:49:25;101732.23;;;13.88;80.15
58739;BME280;44512;53.046;18.604;2022-10-23T05:59:50;101739.36;;;13.89;80.17
58739;BME280;44512;53.046;18.604;2022-10-23T06:10:19;101743.76;;;13.90;80.25
58739;BME280;44512;53.046;18.604;2022-10-23T06:20:47;101743.76;;;13.90;80.34
58739;BME280;44512;53.046;18.604;2022-10-23T06:31:16;101756.73;;;13.88;80.52
58739;BME280;44512;53.046;18.604;2022-10-23T06:41:44;101764.05;;;13.88;80.81
58739;BME280;44512;53.046;18.604;2022-10-23T06:52:12;101767.61;;;13.88;81.02
58739;BME280;44512;53.046;18.604;2022-10-23T07:13:10;101779.59;;;13.94;81.52
58739;BME280;44512;53.046;18.604;2022-10-23T07:23:37;101779.01;;;13.98;81.65
58739;BME280;44512;53.046;18.604;2022-10-23T07:34:09;101785.74;;;14.02;81.71
58739;BME280;44512;53.046;18.604;2022-10-23T07:44:34;101792.48;;;14.06;81.60
58739;BME280;44512;53.046;18.604;2022-10-23T07:55:03;101793.96;;;14.09;81.51
58739;BME280;44512;53.046;18.604;2022-10-23T08:05:31;101798.81;;;14.14;81.49
58739;BME280;44512;53.046;18.604;2022-10-23T08:15:59;101787.71;;;14.15;81.43
58739;BME280;44512;53.046;18.604;2022-10-23T08:26:28;101794.66;;;14.18;81.41
58739;BME280;44512;53.046;18.604;2022-10-23T08:36:56;101813.05;;;14.16;81.21
58739;BME280;44512;53.046;18.604;2022-10-23T09:18:50;101840.86;;;14.32;80.86
58739;BME280;44512;53.046;18.604;2022-10-23T09:29:28;101850.12;;;14.38;80.86
58739;BME280;44512;53.046;18.604;2022-10-23T09:39:47;101855.60;;;14.45;80.75
58739;BME280;44512;53.046;18.604;2022-10-23T09:50:19;101860.10;;;14.52;80.64
58739;BME280;44512;53.046;18.604;2022-10-23T10:00:46;101851.97;;;14.59;80.50
58739;BME280;44512;53.046;18.604;2022-10-23T10:11:23;101852.38;;;14.63;80.33
58739;BME280;44512;53.046;18.604;2022-10-23T10:22:07;101839.00;;;14.68;80.26
58739;BME280;44512;53.046;18.604;2022-10-23T11:03:44;101842.53;;;14.96;80.12
58739;BME280;44512;53.046;18.604;2022-10-23T11:14:02;101840.04;;;15.01;79.63
58739;BME280;44512;53.046;18.604;2022-10-23T11:45:37;101830.88;;;15.16;79.30
58739;BME280;44512;53.046;18.604;2022-10-23T12:06:27;101828.16;;;15.22;78.86
58739;BME280;44512;53.046;18.604;2022-10-23T12:16:52;101816.65;;;15.27;78.15
58739;BME280;44512;53.046;18.604;2022-10-23T12:37:58;101794.05;;;15.46;77.71
58739;BME280;44512;53.046;18.604;2022-10-23T12:48:19;101810.42;;;15.59;76.45
58739;BME280;44512;53.046;18.604;2022-10-23T12:58:52;101805.43;;;15.76;75.82
58739;BME280;44512;53.046;18.604;2022-10-23T13:09:22;101806.95;;;15.92;74.70
58739;BME280;44512;53.046;18.604;2022-10-23T13:19:42;101790.33;;;16.00;74.31
58739;BME280;44512;53.046;18.604;2022-10-23T13:40:39;101804.17;;;16.32;73.43
58739;BME280;44512;53.046;18.604;2022-10-23T13:51:14;101797.45;;;16.41;72.90
58739;BME280;44512;53.046;18.604;2022-10-23T14:01:36;101787.13;;;16.43;72.23
58739;BME280;44512;53.046;18.604;2022-10-23T14:12:04;101781.47;;;16.45;72.13
58739;BME280;44512;53.046;18.604;2022-10-23T14:22:33;101778.74;;;16.45;71.84
58739;BME280;44512;53.046;18.604;2022-10-23T14:33:01;101772.44;;;16.44;71.42
58739;BME280;44512;53.046;18.604;2022-10-23T14:43:29;101795.13;;;16.38;70.61
58739;BME280;44512;53.046;18.604;2022-10-23T14:54:05;101799.79;;;16.24;69.99
58739;BME280;44512;53.046;18.604;2022-10-23T15:04:26;101783.17;;;16.12;69.97
58739;BME280;44512;53.046;18.604;2022-10-23T15:14:54;101770.16;;;16.01;69.94
58739;BME280;44512;53.046;18.604;2022-10-23T15:25:23;101760.95;;;15.89;70.06
58739;BME280;44512;53.046;18.604;2022-10-23T15:35:52;101771.03;;;15.82;70.72
58739;BME280;44512;53.046;18.604;2022-10-23T15:46:19;101777.12;;;15.77;70.68
58739;BME280;44512;53.046;18.604;2022-10-23T15:56:50;101769.34;;;15.68;70.88
58739;BME280;44512;53.046;18.604;2022-10-23T16:07:16;101791.16;;;15.68;70.94
58739;BME280;44512;53.046;18.604;2022-10-23T16:17:45;101778.79;;;15.72;70.87
58739;BME280;44512;53.046;18.604;2022-10-23T16:28:13;101770.61;;;15.72;70.50
58739;BME280;44512;53.046;18.604;2022-10-23T16:38:41;101773.95;;;15.67;69.92
58739;BME280;44512;53.046;18.604;2022-10-23T16:54:27;101787.93;;;15.44;69.50
58739;BME280;44512;53.046;18.604;2022-10-23T17:04:56;101791.28;;;15.33;69.23
58739;BME280;44512;53.046;18.604;2022-10-23T17:15:24;101779.29;;;15.21;69.03
58739;BME280;44512;53.046;18.604;2022-10-23T17:25:52;101793.53;;;15.09;68.78
58739;BME280;44512;53.046;18.604;2022-10-23T17:36:21;101802.27;;;14.98;68.69
58739;BME280;44512;53.046;18.604;2022-10-23T17:46:53;101797.01;;;14.90;68.75
58739;BME280;44512;53.046;18.604;2022-10-23T17:57:17;101791.09;;;14.80;68.26
58739;BME280;44512;53.046;18.604;2022-10-23T18:07:46;101784.32;;;14.69;67.97
58739;BME280;44512;53.046;18.604;2022-10-23T18:18:14;101777.75;;;14.57;67.48
58739;BME280;44512;53.046;18.604;2022-10-23T18:28:44;101769.27;;;14.45;67.48
58739;BME280;44512;53.046;18.604;2022-10-23T18:39:13;101759.57;;;14.36;67.64
58739;BME280;44512;53.046;18.604;2022-10-23T18:49:39;101747.57;;;14.24;67.50
58739;BME280;44512;53.046;18.604;2022-10-23T19:00:10;101746.03;;;14.15;67.11
58739;BME280;44512;53.046;18.604;2022-10-23T19:10:37;101718.32;;;14.04;67.37
58739;BME280;44512;53.046;18.604;2022-10-23T19:21:05;101720.38;;;13.96;67.46
58739;BME280;44512;53.046;18.604;2022-10-23T19:31:33;101698.54;;;13.89;67.60
58739;BME280;44512;53.046;18.604;2022-10-23T19:42:02;101683.63;;;13.85;68.21
58739;BME280;44512;53.046;18.604;2022-10-23T19:52:30;101683.01;;;13.83;68.92
58739;BME280;44512;53.046;18.604;2022-10-23T20:02:59;101686.77;;;13.82;69.25
58739;BME280;44512;53.046;18.604;2022-10-23T20:13:27;101670.83;;;13.79;69.37
58739;BME280;44512;53.046;18.604;2022-10-23T20:23:57;101666.64;;;13.76;69.34
58739;BME280;44512;53.046;18.604;2022-10-23T20:34:24;101668.07;;;13.72;69.55
58739;BME280;44512;53.046;18.604;2022-10-23T20:44:52;101676.62;;;13.69;69.74
58739;BME280;44512;53.046;18.604;2022-10-23T20:55:21;101687.08;;;13.66;69.79
58739;BME280;44512;53.046;18.604;2022-10-23T21:05:49;101675.74;;;13.62;69.84
58739;BME280;44512;53.046;18.604;2022-10-23T21:16:20;101648.08;;;13.59;69.99
58739;BME280;44512;53.046;18.604;2022-10-23T21:26:46;101650.37;;;13.55;70.03
58739;BME280;44512;53.046;18.604;2022-10-23T21:37:14;101658.71;;;13.53;70.04
58739;BME280;44512;53.046;18.604;2022-10-23T21:47:43;101667.28;;;13.50;69.92
58739;BME280;44512;53.046;18.604;2022-10-23T21:58:11;101654.27;;;13.46;69.81
58739;BME280;44512;53.046;18.604;2022-10-23T22:08:39;101641.26;;;13.41;69.65
58739;BME280;44512;53.046;18.604;2022-10-23T22:19:12;101626.58;;;13.36;69.72
58739;BME280;44512;53.046;18.604;2022-10-23T22:29:36;101621.52;;;13.33;69.94
58739;BME280;44512;53.046;18.604;2022-10-23T22:40:06;101609.80;;;13.32;70.13
58739;BME280;44512;53.046;18.604;2022-10-23T22:50:33;101620.68;;;13.32;70.33
58739;BME280;44512;53.046;18.604;2022-10-23T23:01:14;101605.79;;;13.28;70.58
58739;BME280;44512;53.046;18.604;2022-10-23T23:11:30;101612.27;;;13.27;70.75
58739;BME280;44512;53.046;18.604;2022-10-23T23:21:59;101612.98;;;13.14;71.15
58739;BME280;44512;53.046;18.604;2022-10-23T23:32:27;101610.26;;;13.14;71.40
58739;BME280;44512;53.046;18.604;2022-10-23T23:42:55;101614.87;;;13.14;71.43
58739;BME280;44512;53.046;18.604;2022-10-23T23:53:24;101582.05;;;13.15;71.48
